X  Luk Metar data        LELL Aeropuerto de Barcelona Josep Tarradellas
Temperatur
11°C Temperatur
1°C Duggpunkt
50% Fugtighed



Vind
2 KM/T
1 MPT
0 M/S
1 KNOB



-1°
VRB
Nuværende forhold

Mostly Clear Mest klar
Tryk 1016 (hPa) - 30.01 (inHg)
Sigt 6 (mil) - 10 (km)
Lufthavn
Lufthavnskode LELL

Lokation: Aeropuerto de Barcelona Josep Tarradellas
Afstand: 20 (km)

Metar:
METAR LELL 281900Z AUTO VRB01KT CAVOK 11/01 Q1016

Tid: 28-02-2024 20:00 CET